Flight Track Log - Related Links

Times and Time Zones

All times are in EDT time to prevent confusion due to time zone crossing. See the EJA226 flight status page for this flight to view local times or setup timezone preferences in your user account.

Time Position Orientation Groundspeed Altitude Reporting Facility
EDT Latitude Longitude Course Direction KTS MPH feet Rate Location/Type
Mon 03:14:34 PM 41.0842 -100.5944 121° Southeast 192 221 5,000  Level Denver Center
Mon 03:15:36 PM 41.0839 -100.5078 90° East 245 282 6,800 1,887 Climbing Denver Center
Mon 03:16:38 PM 41.1003 -100.3922 79° East 281 323 8,900 1,984 Climbing Denver Center
Mon 03:17:40 PM 41.1192 -100.2614 79° East 313 360 10,900 1,839 Climbing Denver Center
Mon 03:18:42 PM 41.1369 -100.1422 79° East 335 386 12,700 1,887 Climbing Denver Center
Mon 03:19:44 PM 41.1572 -99.9997 79° East 349 402 14,800 1,790 Climbing Denver Center
Mon 03:20:46 PM 41.1736 -99.8800 80° East 346 398 16,400 1,403 Climbing Denver Center
Mon 03:21:48 PM 41.1911 -99.7558 79° East 352 405 17,700 1,452 Climbing Denver Center
Mon 03:22:50 PM 41.2117 -99.6086 79° East 361 415 19,400 1,500 Climbing Denver Center
Mon 03:23:52 PM 41.2292 -99.4800 80° East 367 422 20,800 1,548 Climbing Denver Center
Mon 03:24:54 PM 41.2503 -99.3217 80° East 372 428 22,600 1,597 Climbing Denver Center
Mon 03:25:56 PM 41.2689 -99.1861 80° East 371 427 24,100 1,398 Climbing Denver Center
Mon 03:27:07 PM 41.2772 -99.0311 86° East 372 428 25,700 1,398 Climbing Minneapolis Center
Mon 03:28:09 PM 41.2753 -98.8953 91° East 370 426 27,200 1,113 Climbing Minneapolis Center
Mon 03:29:11 PM 41.2742 -98.7542 91° East 379 436 28,000 629 Climbing Minneapolis Center
Mon 03:30:13 PM 41.2697 -98.6064 92° East 397 457 28,500 581 Climbing Minneapolis Center
Mon 03:31:15 PM 41.3008 -98.4331 77° East 421 484 29,200 677 Climbing Minneapolis Center
Mon 03:32:17 PM 41.3281 -98.2789 77° East 426 490 29,900 732 Climbing Minneapolis Center
Mon 03:33:18 PM 41.3556 -98.1228 77° East 431 496 30,700 927 Climbing Minneapolis Center
Mon 03:34:20 PM 41.3850 -97.9578 77° East 434 499 31,800 1,016 Climbing Minneapolis Center
Mon 03:35:22 PM 41.4119 -97.8022 77° East 433 498 32,800 968 Climbing Minneapolis Center
Mon 03:36:24 PM 41.4392 -97.6472 77° East 431 496 33,800 968 Climbing Minneapolis Center
Mon 03:37:26 PM 41.4669 -97.4908 77° East 432 497 34,800 968 Climbing Minneapolis Center
Mon 03:38:28 PM 41.4914 -97.3353 78° East 431 496 35,800 1,065 Climbing Minneapolis Center
Mon 03:39:30 PM 41.5228 -97.1492 77° East 429 494 37,000 1,065 Climbing Minneapolis Center
Mon 03:40:32 PM 41.5489 -96.9953 77° East 426 490 38,000 968 Climbing Minneapolis Center
Mon 03:41:34 PM 41.5736 -96.8428 78° East 422 486 39,000 968 Climbing Minneapolis Center
Mon 03:42:36 PM 41.5992 -96.6911 77° East 419 482 40,000 878 Climbing Minneapolis Center
Mon 03:43:37 PM 41.6222 -96.5406 78° East 414 476 40,800 488 Climbing Minneapolis Center
Mon 03:44:39 PM 41.6469 -96.3867 78° East 419 482 41,000 97 Climbing Minneapolis Center
Mon 03:45:41 PM 41.6728 -96.2253 78° East 436 502 41,000  Level Minneapolis Center
Mon 03:46:55 PM 41.6992 -96.0603 78° East 446 513 41,000  Level Minneapolis Center
Mon 03:47:57 PM 41.7342 -95.8253 79° East 454 522 41,000  Level Minneapolis Center
Mon 03:48:59 PM 41.7608 -95.6561 78° East 458 527 41,000  Level Minneapolis Center
Mon 03:50:01 PM 41.7853 -95.4850 79° East 465 535 41,000  Level Minneapolis Center
Mon 03:51:03 PM 41.8106 -95.3167 79° East 462 532 41,000  Level Minneapolis Center
Mon 03:52:05 PM 41.8358 -95.1467 79° East 464 534 41,000  Level Minneapolis Center
Mon 03:53:07 PM 41.8553 -95.0111 79° East 463 533 41,000  Level Minneapolis Center
Mon 03:54:09 PM 41.8856 -94.8069 79° East 464 534 41,000  Level Minneapolis Center
Mon 03:55:11 PM 41.9092 -94.6372 79° East 463 533 41,000  Level Minneapolis Center
Mon 03:56:25 PM 41.9389 -94.4344 79° East 462 532 41,000  Level Minneapolis Center
Mon 03:57:27 PM 41.9675 -94.2300 79° East 463 533 41,000  Level Minneapolis Center
Mon 03:58:29 PM 41.9900 -94.0614 80° East 461 531 41,000  Level Minneapolis Center
Mon 03:59:35 PM 42.0169 -93.8706 79° East 465 535 41,000  Level Minneapolis Center
Mon 04:00:37 PM 42.0394 -93.7022 80° East 463 533 41,000  Level Minneapolis Center
Mon 04:01:39 PM 42.0611 -93.5333 80° East 463 533 41,000  Level Minneapolis Center
Mon 04:02:41 PM 42.0844 -93.3650 79° East 462 532 41,000  Level Minneapolis Center
Mon 04:03:43 PM 42.1117 -93.1617 80° East 464 534 41,000  Level Minneapolis Center
Mon 04:04:45 PM 42.1319 -92.9917 81° East 465 535 41,000  Level Minneapolis Center
Mon 04:05:47 PM 42.1539 -92.8219 80° East 465 535 41,000  Level Minneapolis Center
Mon 04:06:49 PM 42.1744 -92.6528 81° East 462 532 41,000  Level Chicago Center
Mon 04:07:51 PM 42.1953 -92.4844 80° East 462 532 41,000  Level Chicago Center
Mon 04:08:53 PM 42.2206 -92.2825 80° East 461 531 41,000  Level Chicago Center
Mon 04:09:55 PM 42.2400 -92.1142 81° East 462 532 41,000  Level Chicago Center
Mon 04:10:57 PM 42.2603 -91.9467 81° East 460 529 41,000  Level Chicago Center
Mon 04:11:59 PM 42.2808 -91.7778 81° East 462 532 41,000  Level Chicago Center
Mon 04:13:01 PM 42.3042 -91.5758 81° East 462 532 41,000  Level Chicago Center
Mon 04:14:03 PM 42.3231 -91.4072 81° East 462 532 41,000  Level Chicago Center
Mon 04:15:06 PM 42.3414 -91.2403 81° East 457 526 41,000  Level Chicago Center
Mon 04:16:08 PM 42.3592 -91.0700 82° East 463 533 41,000  Level Chicago Center
Mon 04:17:10 PM 42.3822 -90.8667 81° East 466 536 41,000  Level Chicago Center
Mon 04:18:12 PM 42.4008 -90.6950 82° East 470 541 41,000  Level Chicago Center
Mon 04:19:14 PM 42.4175 -90.5239 82° East 468 539 41,000  Level Chicago Center
Mon 04:20:16 PM 42.4336 -90.3503 83° East 471 542 41,000  Level Chicago Center
Mon 04:21:18 PM 42.4533 -90.1419 83° East 473 544 41,000  Level Chicago Center
Mon 04:22:20 PM 42.4700 -89.9647 83° East 482 555 41,000  Level Chicago Center
Mon 04:23:22 PM 42.4856 -89.7828 83° East 482 555 41,000  Level Chicago Center
Mon 04:24:24 PM 42.5019 -89.5994 83° East 491 565 41,000  Level Chicago Center
Mon 04:25:26 PM 42.5178 -89.4156 83° East 494 568 41,000  Level Chicago Center
Mon 04:26:28 PM 42.5364 -89.2008 83° East 494 568 41,000  Level Chicago Center
Mon 04:27:30 PM 42.5517 -89.0169 84° East 493 567 41,000  Level Chicago Center
Mon 04:28:32 PM 42.5672 -88.8322 83° East 495 570 41,000  Level Chicago Center
Mon 04:29:34 PM 42.5819 -88.6464 84° East 496 571 41,000  Level Chicago Center
Mon 04:30:36 PM 42.5964 -88.4600 84° East 499 574 41,000  Level Chicago Center
Mon 04:31:39 PM 42.6136 -88.2442 84° East 497 572 41,000  Level Chicago Center
Mon 04:32:41 PM 42.6269 -88.0564 84° East 500 575 41,000  Level Chicago Center
Mon 04:33:43 PM 42.6408 -87.8681 84° East 501 577 41,000  Level Chicago Center
Mon 04:34:45 PM 42.6542 -87.6800 84° East 501 577 41,000  Level Chicago Center
Mon 04:35:47 PM 42.6675 -87.4911 84° East 502 578 41,000  Level Chicago Center
Mon 04:36:49 PM 42.6828 -87.2756 84° East 503 579 41,000  Level Chicago Center
Mon 04:37:51 PM 42.6936 -87.0875 85° East 502 578 41,000  Level Chicago Center
Mon 04:38:53 PM 42.7067 -86.8981 85° East 505 581 41,000  Level Chicago Center
Mon 04:39:55 PM 42.7181 -86.7086 85° East 507 583 41,000  Level Chicago Center
Mon 04:40:57 PM 42.7292 -86.5172 85° East 510 587 41,000  Level Chicago Center
Mon 04:41:59 PM 42.7422 -86.2900 85° East 508 585 41,000  Level Chicago Center
Mon 04:43:01 PM 42.7536 -86.0997 85° East 511 588 41,000  Level Chicago Center
Mon 04:44:03 PM 42.7628 -85.9081 86° East 517 595 41,000  Level Chicago Center
Mon 04:45:05 PM 42.7742 -85.7150 85° East 524 603 41,000  Level Chicago Center
Mon 04:46:08 PM 42.7875 -85.4833 85° East 519 597 41,000  Level Chicago Center
Mon 04:47:10 PM 42.8103 -85.2925 81° East 513 590 41,000  Level Chicago Center
Mon 04:48:12 PM 42.8314 -85.0994 81° East 518 596 41,000  Level Chicago Center
Mon 04:49:14 PM 42.8525 -84.9067 81° East 517 595 41,000  Level Chicago Center
Mon 04:50:16 PM 42.8719 -84.7139 82° East 516 594 41,000  Level Chicago Center
Mon 04:51:18 PM 42.8958 -84.4819 82° East 516 594 41,000  Level Chicago Center
Mon 04:52:20 PM 42.9150 -84.2892 82° East 515 593 41,000  Level Chicago Center
Mon 04:53:22 PM 42.9344 -84.0958 82° East 514 592 41,000  Level Chicago Center
Mon 04:54:24 PM 42.9525 -83.9014 83° East 518 596 41,000  Level Chicago Center
Mon 04:55:26 PM 42.9697 -83.7075 83° East 517 595 41,000  Level Chicago Center
Mon 04:56:28 PM 42.9764 -83.5103 87° East 519 597 41,000  Level Chicago Center
Mon 04:57:30 PM 42.9842 -83.2733 87° East 522 601 41,000  Level Chicago Center
Mon 04:58:42 PM 42.9928 -83.0356 87° East 513 590 41,000  Level Cleveland Center
Mon 05:00:42 PM 43.0047 -82.6386 88° East 513 590 41,000  Level Cleveland Center
Mon 05:01:42 PM 43.0100 -82.4372 88° East 513 590 41,000  Level Cleveland Center
Mon 05:02:48 PM 43.0000 -82.2167 93° East 520 598 41,000  Level Toronto Center
Mon 05:03:48 PM 43.0000 -82.0000 90° East 520 598 41,000  Level Toronto Center
Mon 05:04:48 PM 43.0167 -81.8167 83° East 530 610 41,000  Level Toronto Center
Mon 05:05:48 PM 43.0167 -81.6167 90° East 530 610 41,000  Level Toronto Center
Mon 05:06:48 PM 43.0167 -81.4167 90° East 530 610 41,000  Level Toronto Center
Mon 05:07:48 PM 43.0167 -81.2000 90° East 530 610 41,000 -50 Level Toronto Center
Mon 05:08:49 PM 43.0167 -81.0000 90° East 530 610 40,900  Descending Toronto Center
Mon 05:09:48 PM 43.0000 -80.8167 97° East 520 598 41,000 50 Climbing Toronto Center
Mon 05:10:48 PM 43.0167 -80.6167 83° East 520 598 41,000  Level Toronto Center
Mon 05:11:48 PM 43.0000 -80.4333 97° East 520 598 41,000  Level Toronto Center
Mon 05:12:48 PM 43.0000 -80.2333 90° East 520 598 41,000  Level Toronto Center
Mon 05:13:48 PM 42.9833 -80.0167 96° East 520 598 41,000  Level Toronto Center
Mon 05:14:48 PM 42.9833 -79.8167 90° East 520 598 41,000  Level Toronto Center
Mon 05:15:48 PM 42.9667 -79.6333 97° East 510 587 41,000  Level Toronto Center
Mon 05:16:48 PM 42.9667 -79.4333 90° East 510 587 41,000  Level Toronto Center
Mon 05:17:48 PM 42.9500 -79.2500 97° East 510 587 41,000  Level Toronto Center
Mon 05:18:48 PM 42.9500 -79.0333 90° East 510 587 41,000  Level Toronto Center
Mon 05:19:48 PM 42.9333 -78.8667 98° East 510 587 41,000  Level Toronto Center
Mon 05:20:42 PM 42.9328 -78.7172 90° East 516 594 41,000  Level Cleveland Center
Mon 05:21:42 PM 42.9069 -78.5339 101° East 510 587 41,000  Level Cleveland Center
Mon 05:22:42 PM 42.8722 -78.3481 104° East 504 580 41,000  Level Cleveland Center
Mon 05:23:42 PM 42.8369 -78.1594 104° East 509 586 41,000  Level Cleveland Center
Mon 05:24:42 PM 42.8017 -77.9714 104° East 509 586 41,000  Level Cleveland Center
Mon 05:25:42 PM 42.7658 -77.7806 104° East 509 586 41,000  Level Cleveland Center
Mon 05:26:42 PM 42.7231 -77.5647 105° East 515 593 41,000 -50 Level Cleveland Center
Mon 05:27:42 PM 42.6803 -77.3689 106° East 527 606 40,900 -902 Descending Cleveland Center
Mon 05:29:15 PM 42.6275 -77.1083 105° East 522 601 38,700 -1,490 Descending Boston Center
Mon 05:30:15 PM 42.5892 -76.9219 106° East 522 601 37,100 -1,636 Descending Boston Center
Mon 05:31:16 PM 42.5506 -76.7358 106° East 516 594 35,400 -1,636 Descending Boston Center
Mon 05:32:16 PM 42.5117 -76.5472 106° East 516 594 33,800 -1,200 Descending Boston Center
Mon 05:33:16 PM 42.4725 -76.3589 106° East 516 594 33,000 -712 Descending Boston Center
Mon 05:34:14 PM 42.4350 -76.1736 105° East 516 594 32,400 -1,169 Descending Boston Center
Mon 05:35:14 PM 42.3933 -75.9742 106° East 528 608 30,700 -2,083 Descending Boston Center
Mon 05:36:15 PM 42.3553 -75.7864 105° East 528 608 28,200 -2,479 Descending Boston Center
Mon 05:37:15 PM 42.3164 -75.6103 107° East 511 588 25,700 -2,479 Descending Boston Center
Mon 05:38:16 PM 42.2800 -75.4233 105° East 504 580 23,200 -2,521 Descending Boston Center
Mon 05:39:14 PM 42.2389 -75.2333 106° East 509 586 20,700 -2,237 Descending Boston Center
Mon 05:40:14 PM 42.1972 -75.0550 107° East 509 586 18,800 -1,339 Descending Boston Center
Mon 05:41:15 PM 42.1492 -74.8792 110° East 503 579 18,000 -397 Descending Boston Center
Mon 05:42:15 PM 42.0686 -74.7364 127° Southeast 480 552 18,000 -397 Level Boston Center
Mon 05:43:16 PM 41.9731 -74.6100 135° Southeast 480 552 17,200 -1,438 Descending Boston Center
Mon 05:44:16 PM 41.8717 -74.4697 134° Southeast 480 552 15,100 -2,269 Descending Boston Center
Mon 05:45:15 PM 41.7983 -74.3672 134° Southeast 444 511 12,700 -2,319 Descending Boston Center
Mon 05:46:15 PM 41.7167 -74.2589 135° Southeast 388 447 10,500 -1,884 Descending Boston Center
Mon 05:47:16 PM 41.6597 -74.1794 134° Southeast 344 396 8,900 -1,537 Descending Boston Center
Mon 05:48:16 PM 41.5983 -74.1000 136° Southeast 322 371 7,400 -1,107 Descending Boston Center
Mon 05:48:59 PM 41.5500 -74.0333 134° Southeast 296 341 7,000 -757 Descending New York TRACON
Mon 05:49:59 PM 41.4833 -73.9500 137° Southeast 306 352 6,100 -600 Descending New York TRACON
Mon 05:50:59 PM 41.4333 -73.8833 135° Southeast 304 350 5,800 -950 Descending New York TRACON
Mon 05:51:59 PM 41.3667 -73.8167 143° Southeast 297 342 4,200 -1,350 Descending New York TRACON
Mon 05:52:59 PM 41.3000 -73.7500 143° Southeast 280 322 3,100 -550 Descending New York TRACON
Mon 05:53:59 PM 41.2333 -73.7000 151° Southeast 280 322 3,100  Level New York TRACON
Mon 05:54:59 PM 41.1667 -73.6333 143° Southeast 292 336 3,100 -350 Level New York TRACON
Mon 05:55:59 PM 41.1000 -73.5833 151° Southeast 258 297 2,400 -500 Descending New York TRACON
Mon 05:56:59 PM 41.0500 -73.5500 153° Southeast 212 244 2,100 -150 Descending New York TRACON
Mon 05:57:59 PM 41.0000 -73.5667 194° South 191 220 2,100 50 Level New York TRACON
Mon 05:58:59 PM 40.9833 -73.6333 252° West 192 221 2,200 -300 Climbing New York TRACON
Mon 05:59:59 PM 41.0167 -73.6667 323° Northwest 158 182 1,500 -750 Descending New York TRACON
Mon 06:00:59 PM 41.0500 -73.7000 323° Northwest 141 162 700 -800 Descending New York TRACON
Mon 06:02:00 PM 41.0667 -73.7000 304° West  Level FlightAware Approximate
Mon 06:09:00 PM 41.0669 -73.7076 304° West  Level Estimated
Mon 06:10:00 PM 41.0667 -73.7000 304° West  Level FlightAware Approximate

Login

Don't have an account? Register now (free) for customized features, flight alerts, and more!